WXM80 ListenWXM80 Stop

You find our weather info also at:

UK Metoffice

WeatherCloud

Weather Underground

Northeastern Weather Network

AWEKAS

Citizen Weather Observer Program (CWOP)

HAMweather, WeatherForYou, PWS Weather


Weather Underground History page Text

Daily Summary for October 30, 2016 Units:  English    Metric   Both
« Previous Day
Next Day »
Daily Weekly Monthly Yearly Custom
  High: Low: Average:
Temperature: 75.0 °F 54.7 °F 63.9 °F
Dew Point: 62.8 °F 51.8 °F 57.3 °F
Humidity: 95 % 63 % 80 %
Wind Speed: 9.5 mph 0.0 mph 2.7 mph
Wind Gust: 17.3 mph - -
Wind:- - SSW
Pressure: 29.90 in 29.73 in -
Precipitation: 0.37 in    
Historical Graphs
 
 
Tabular Data for October 30, 2016
Time Temperature Dew Point Pressure Wind Wind Speed Wind Gust Humidity Rainfall Rate (Hourly)
00:00 64.3 °F 53.9 °F 29.85 in WSW 3.1 mph 6.9 mph 69 % 0.00 in
00:06 64.2 °F 53.8 °F 29.85 in SW 4.2 mph 9.2 mph 69 % 0.00 in
00:11 64.1 °F 54.1 °F 29.85 in SSW 4.3 mph 10.4 mph 70 % 0.00 in
00:16 64.0 °F 54.0 °F 29.85 in SSW 4.4 mph 6.9 mph 70 % 0.00 in
00:21 63.9 °F 53.9 °F 29.85 in SW 5.2 mph 8.0 mph 70 % 0.00 in
00:26 63.8 °F 54.2 °F 29.85 in SSW 6.0 mph 9.2 mph 71 % 0.00 in
00:31 63.8 °F 54.2 °F 29.85 in WSW 2.7 mph 4.6 mph 71 % 0.00 in
00:36 63.6 °F 54.0 °F 29.85 in SSW 4.5 mph 7.0 mph 71 % 0.00 in
00:41 63.6 °F 54.0 °F 29.85 in SSW 4.9 mph 5.8 mph 71 % 0.00 in
00:46 63.5 °F 53.9 °F 29.85 in SW 3.0 mph 8.0 mph 71 % 0.00 in
00:51 63.4 °F 54.2 °F 29.85 in SW 4.4 mph 8.1 mph 72 % 0.00 in
00:57 63.4 °F 54.2 °F 29.85 in SW 2.4 mph 4.0 mph 72 % 0.00 in
01:02 63.3 °F 54.1 °F 29.85 in SW 2.5 mph 4.0 mph 72 % 0.00 in
01:07 63.2 °F 54.4 °F 29.85 in SSW 2.1 mph 3.5 mph 73 % 0.00 in
01:12 63.2 °F 54.4 °F 29.85 in WNW 1.5 mph 3.5 mph 73 % 0.00 in
01:22 63.1 °F 54.3 °F 29.85 in WSW 1.5 mph 3.5 mph 73 % 0.00 in
01:27 62.9 °F 54.5 °F 29.85 in SW 2.5 mph 4.6 mph 74 % 0.00 in
01:32 62.9 °F 54.5 °F 29.85 in SW 2.5 mph 4.6 mph 74 % 0.00 in
01:37 62.8 °F 54.4 °F 29.84 in SSW 3.6 mph 5.0 mph 74 % 0.00 in
01:42 62.7 °F 54.7 °F 29.84 in SW 4.4 mph 6.9 mph 75 % 0.00 in
01:48 62.6 °F 54.6 °F 29.85 in SW 2.6 mph 4.6 mph 75 % 0.00 in
01:53 62.5 °F 54.5 °F 29.84 in SW 2.5 mph 4.6 mph 75 % 0.00 in
01:58 62.4 °F 54.4 °F 29.84 in WSW 3.7 mph 6.0 mph 75 % 0.00 in
02:03 62.4 °F 54.7 °F 29.84 in SW 3.6 mph 6.9 mph 76 % 0.00 in
02:08 62.3 °F 54.6 °F 29.84 in SW 4.9 mph 5.8 mph 76 % 0.00 in
02:13 62.3 °F 54.6 °F 29.84 in SSW 4.7 mph 8.1 mph 76 % 0.00 in
02:18 62.3 °F 54.6 °F 29.84 in SSW 4.4 mph 9.2 mph 76 % 0.00 in
02:23 62.4 °F 54.7 °F 29.84 in SW 2.9 mph 5.8 mph 76 % 0.00 in
02:28 62.4 °F 54.7 °F 29.84 in SSW 6.8 mph 13.8 mph 76 % 0.00 in
02:33 62.4 °F 54.7 °F 29.84 in WSW 5.7 mph 6.9 mph 76 % 0.00 in
02:39 62.5 °F 54.8 °F 29.84 in SSW 5.1 mph 7.0 mph 76 % 0.00 in
02:44 62.5 °F 54.8 °F 29.84 in SW 3.0 mph 4.6 mph 76 % 0.00 in
02:49 62.6 °F 54.9 °F 29.84 in SSW 5.4 mph 9.2 mph 76 % 0.00 in
02:54 62.7 °F 55.0 °F 29.84 in SW 4.1 mph 8.1 mph 76 % 0.00 in
02:59 62.7 °F 55.0 °F 29.84 in WSW 3.9 mph 5.0 mph 76 % 0.00 in
03:04 62.8 °F 55.1 °F 29.84 in SSW 4.2 mph 5.8 mph 76 % 0.00 in
03:09 62.8 °F 55.1 °F 29.83 in SSW 5.2 mph 7.0 mph 76 % 0.00 in
03:14 62.9 °F 55.2 °F 29.83 in SW 2.0 mph 4.0 mph 76 % 0.00 in
03:19 62.9 °F 55.2 °F 29.83 in SSW 3.0 mph 9.2 mph 76 % 0.00 in
03:30 63.0 °F 55.3 °F 29.83 in WSW 5.8 mph 9.2 mph 76 % 0.00 in
03:35 63.1 °F 55.4 °F 29.84 in SW 2.7 mph 5.8 mph 76 % 0.00 in
03:40 63.2 °F 55.5 °F 29.84 in SW 2.7 mph 3.5 mph 76 % 0.00 in
03:45 63.3 °F 55.6 °F 29.84 in WSW 2.2 mph 4.6 mph 76 % 0.00 in
03:50 63.3 °F 55.6 °F 29.84 in West 2.4 mph 5.0 mph 76 % 0.00 in
03:55 63.4 °F 55.7 °F 29.84 in SW 2.5 mph 3.5 mph 76 % 0.00 in
04:00 63.4 °F 55.7 °F 29.84 in West 3.1 mph 6.9 mph 76 % 0.00 in
04:05 63.4 °F 55.7 °F 29.83 in SW 2.7 mph 4.0 mph 76 % 0.00 in
04:10 63.4 °F 56.1 °F 29.84 in West 4.2 mph 6.0 mph 77 % 0.00 in
04:15 63.3 °F 56.0 °F 29.83 in SW 3.0 mph 7.0 mph 77 % 0.00 in
04:20 63.2 °F 55.9 °F 29.84 in SW 3.0 mph 8.0 mph 77 % 0.00 in
04:25 63.1 °F 55.8 °F 29.84 in SW 2.6 mph 4.0 mph 77 % 0.00 in
04:30 63.1 °F 55.7 °F 29.83 in WSW 1.0 mph 7.0 mph 77 % 0.00 in
04:35 62.9 °F 56.0 °F 29.83 in SW 2.0 mph 7.0 mph 78 % 0.00 in
04:40 62.9 °F 55.9 °F 29.83 in SW 2.1 mph 3.0 mph 78 % 0.00 in
04:45 62.7 °F 56.1 °F 29.83 in WSW 2.0 mph 5.0 mph 79 % 0.00 in
04:50 62.7 °F 56.1 °F 29.83 in WSW 2.0 mph 6.0 mph 79 % 0.00 in
04:55 62.5 °F 55.9 °F 29.84 in SSW 2.3 mph 4.6 mph 79 % 0.00 in
05:00 62.4 °F 55.8 °F 29.83 in SSW 2.0 mph 3.5 mph 79 % 0.00 in
05:06 62.3 °F 56.0 °F 29.84 in SW 3.1 mph 4.6 mph 80 % 0.00 in
05:11 62.2 °F 56.0 °F 29.83 in WNW 0.4 mph 2.3 mph 80 % 0.00 in
05:16 62.2 °F 56.0 °F 29.84 in WSW 1.1 mph 3.5 mph 80 % 0.00 in
05:21 62.1 °F 55.9 °F 29.84 in West 1.2 mph 3.5 mph 80 % 0.00 in
05:26 62.0 °F 55.8 °F 29.84 in SSW 1.7 mph 3.5 mph 80 % 0.00 in
05:31 61.9 °F 55.7 °F 29.84 in SW 2.8 mph 3.5 mph 80 % 0.00 in
05:36 61.9 °F 55.7 °F 29.85 in SW 1.5 mph 2.3 mph 80 % 0.00 in
05:41 61.8 °F 55.9 °F 29.85 in SSW 1.1 mph 2.3 mph 81 % 0.00 in
05:46 61.7 °F 55.8 °F 29.85 in SW 2.4 mph 3.5 mph 81 % 0.00 in
05:51 61.7 °F 55.8 °F 29.85 in SW 1.3 mph 3.5 mph 81 % 0.00 in
05:56 61.6 °F 55.7 °F 29.85 in WSW 2.0 mph 2.0 mph 81 % 0.00 in
06:02 61.5 °F 55.6 °F 29.84 in SW 2.6 mph 8.1 mph 81 % 0.00 in
06:07 61.4 °F 55.9 °F 29.84 in WSW 2.0 mph 3.5 mph 82 % 0.00 in
06:12 61.4 °F 55.9 °F 29.84 in West 1.1 mph 3.5 mph 82 % 0.00 in
06:17 61.3 °F 55.8 °F 29.84 in SSW 0.9 mph 3.5 mph 82 % 0.00 in
06:22 61.3 °F 55.8 °F 29.84 in West 2.6 mph 5.8 mph 82 % 0.00 in
06:27 61.3 °F 55.8 °F 29.84 in SW 1.2 mph 4.6 mph 82 % 0.00 in
06:32 61.3 °F 55.8 °F 29.85 in West 3.2 mph 9.2 mph 82 % 0.00 in
06:37 61.3 °F 55.8 °F 29.85 in WSW 2.9 mph 5.0 mph 82 % 0.00 in
06:42 61.3 °F 55.8 °F 29.85 in WSW 3.5 mph 5.8 mph 82 % 0.00 in
06:47 61.4 °F 55.9 °F 29.85 in WSW 2.0 mph 3.5 mph 82 % 0.00 in
06:53 61.4 °F 55.9 °F 29.85 in West 0.3 mph 4.6 mph 82 % 0.00 in
06:58 61.3 °F 55.8 °F 29.85 in SW 0.6 mph 2.3 mph 82 % 0.00 in
07:03 61.3 °F 55.8 °F 29.85 in West 0.6 mph 2.3 mph 82 % 0.00 in
07:08 61.2 °F 55.7 °F 29.85 in Calm     82 % 0.00 in
07:13 61.1 °F 55.6 °F 29.85 in West 0.1 mph 1.2 mph 82 % 0.00 in
07:18 61.0 °F 55.5 °F 29.85 in Calm   1.2 mph 82 % 0.00 in
07:23 60.8 °F 55.3 °F 29.86 in West 1.5 mph 2.3 mph 82 % 0.00 in
07:28 60.7 °F 55.5 °F 29.86 in West 0.8 mph 3.5 mph 83 % 0.00 in
07:33 60.6 °F 55.4 °F 29.86 in SW 2.8 mph 2.8 mph 83 % 0.00 in
07:38 60.6 °F 55.4 °F 29.86 in SW 0.1 mph 1.2 mph 83 % 0.00 in
07:44 60.5 °F 55.6 °F 29.86 in WSW 1.6 mph 5.0 mph 84 % 0.00 in
07:49 60.4 °F 55.5 °F 29.86 in SW 0.7 mph 3.5 mph 84 % 0.00 in
07:54 60.4 °F 55.5 °F 29.86 in WSW 1.8 mph 4.6 mph 84 % 0.00 in
07:59 60.3 °F 55.4 °F 29.86 in SW 2.2 mph 4.0 mph 84 % 0.00 in
08:04 60.3 °F 55.4 °F 29.86 in SW 1.6 mph 2.3 mph 84 % 0.00 in
08:09 60.2 °F 55.7 °F 29.86 in SSW 1.7 mph 3.5 mph 85 % 0.00 in
08:14 60.2 °F 55.7 °F 29.86 in SW 2.0 mph 3.5 mph 85 % 0.00 in
08:19 60.2 °F 55.7 °F 29.86 in West 0.5 mph 2.3 mph 85 % 0.00 in
08:24 60.3 °F 55.8 °F 29.86 in WNW 0.4 mph 3.5 mph 85 % 0.00 in
08:29 60.4 °F 55.9 °F 29.86 in SW 1.4 mph 3.0 mph 85 % 0.00 in
08:35 60.5 °F 56.0 °F 29.86 in WNW 1.7 mph 3.5 mph 85 % 0.00 in
08:40 60.7 °F 56.2 °F 29.87 in SSW 2.0 mph 3.5 mph 85 % 0.00 in
08:45 60.9 °F 56.4 °F 29.87 in WSW 2.3 mph 3.5 mph 85 % 0.00 in
08:50 61.0 °F 56.1 °F 29.87 in WSW 1.5 mph 2.3 mph 84 % 0.00 in
08:55 61.2 °F 56.3 °F 29.87 in WSW 1.2 mph 3.0 mph 84 % 0.00 in
09:05 61.6 °F 56.7 °F 29.88 in SW 1.4 mph 3.5 mph 84 % 0.00 in
09:10 61.8 °F 56.6 °F 29.87 in SSW 0.3 mph 2.3 mph 83 % 0.00 in
09:15 62.1 °F 56.9 °F 29.87 in SSW 0.2 mph 2.0 mph 83 % 0.00 in
09:20 62.3 °F 57.1 °F 29.87 in SSW 0.6 mph 3.5 mph 83 % 0.00 in
09:25 62.7 °F 57.5 °F 29.87 in SW 1.0 mph 4.0 mph 83 % 0.00 in
09:30 63.1 °F 57.5 °F 29.87 in SW 1.0 mph 4.0 mph 82 % 0.00 in
09:35 63.6 °F 58.0 °F 29.87 in Calm   4.0 mph 82 % 0.00 in
09:40 64.1 °F 58.1 °F 29.87 in WSW 1.0 mph 3.0 mph 81 % 0.00 in
09:50 65.2 °F 58.5 °F 29.87 in WSW 1.0 mph 3.0 mph 79 % 0.00 in
09:55 65.6 °F 58.6 °F 29.86 in West 1.0 mph 4.0 mph 78 % 0.00 in
10:05 66.4 °F 59.0 °F 29.87 in WSW 2.0 mph 5.0 mph 77 % 0.00 in
10:10 66.7 °F 58.9 °F 29.87 in WSW 1.0 mph 5.0 mph 76 % 0.00 in
10:16 66.9 °F 59.1 °F 29.87 in WSW 0.6 mph 2.3 mph 76 % 0.00 in
10:17 67.0 °F 59.2 °F 29.87 in SW 1.2 mph 2.3 mph 76 % 0.00 in
10:23 67.1 °F 59.3 °F 29.86 in WSW 1.4 mph 3.5 mph 76 % 0.00 in
10:28 67.2 °F 59.0 °F 29.86 in WNW 0.9 mph 2.3 mph 75 % 0.00 in
10:33 67.5 °F 59.3 °F 29.86 in WNW 0.2 mph 2.3 mph 75 % 0.00 in
10:38 67.8 °F 59.6 °F 29.86 in SSW 2.5 mph 3.5 mph 75 % 0.00 in
10:43 68.4 °F 60.5 °F 29.86 in WNW 1.1 mph 2.3 mph 76 % 0.00 in
10:48 68.9 °F 60.3 °F 29.86 in South 0.9 mph 3.0 mph 74 % 0.00 in
10:53 69.4 °F 60.8 °F 29.86 in SW 1.5 mph 3.5 mph 74 % 0.00 in
10:58 70.0 °F 60.6 °F 29.86 in SW 4.9 mph 6.9 mph 72 % 0.00 in
11:03 70.6 °F 60.7 °F 29.86 in WSW 1.0 mph 3.5 mph 71 % 0.00 in
11:09 71.1 °F 60.8 °F 29.85 in WNW 4.3 mph 5.8 mph 70 % 0.00 in
11:14 71.5 °F 60.8 °F 29.85 in SW 3.4 mph 6.9 mph 69 % 0.00 in
11:19 72.0 °F 61.3 °F 29.85 in SSW 1.2 mph 2.3 mph 69 % 0.00 in
11:29 72.8 °F 61.6 °F 29.85 in WSW 5.8 mph 9.2 mph 68 % 0.00 in
11:34 73.2 °F 61.2 °F 29.85 in WSW 3.0 mph 6.9 mph 66 % 0.00 in
11:39 73.5 °F 60.6 °F 29.84 in SW 5.0 mph 7.0 mph 64 % 0.00 in
11:44 73.4 °F 60.5 °F 29.84 in WNW 3.5 mph 8.1 mph 64 % 0.00 in
11:54 73.1 °F 60.6 °F 29.85 in WSW 3.8 mph 8.1 mph 65 % 0.00 in
12:00 73.0 °F 61.0 °F 29.84 in West 3.7 mph 4.6 mph 66 % 0.00 in
12:10 72.8 °F 60.8 °F 29.84 in NW 1.1 mph 3.5 mph 66 % 0.00 in
12:15 72.7 °F 60.7 °F 29.84 in NNW 1.2 mph 3.0 mph 66 % 0.00 in
12:20 72.6 °F 61.0 °F 29.83 in NW 1.8 mph 3.5 mph 67 % 0.00 in
12:25 72.5 °F 60.9 °F 29.83 in West 2.4 mph 4.6 mph 67 % 0.00 in
12:30 72.4 °F 60.8 °F 29.83 in NW 1.8 mph 4.0 mph 67 % 0.00 in
12:35 72.4 °F 61.2 °F 29.83 in WNW 3.8 mph 4.6 mph 68 % 0.00 in
12:40 72.4 °F 61.2 °F 29.83 in West 3.0 mph 6.0 mph 68 % 0.00 in
12:45 72.4 °F 61.2 °F 29.82 in WNW 0.3 mph 3.5 mph 68 % 0.00 in
12:50 72.5 °F 61.4 °F 29.82 in West 2.0 mph 6.0 mph 68 % 0.00 in
12:55 72.7 °F 61.5 °F 29.82 in WNW 2.5 mph 5.8 mph 68 % 0.00 in
13:01 73.0 °F 61.4 °F 29.81 in West 2.4 mph 4.6 mph 67 % 0.00 in
13:06 73.1 °F 61.5 °F 29.81 in SW 1.5 mph 4.0 mph 67 % 0.00 in
13:11 73.3 °F 61.7 °F 29.81 in NW 1.3 mph 3.0 mph 67 % 0.00 in
13:16 73.3 °F 61.7 °F 29.81 in NW 2.5 mph 4.0 mph 67 % 0.00 in
13:21 73.3 °F 62.1 °F 29.81 in NNE 0.7 mph 2.3 mph 68 % 0.00 in
13:31 73.4 °F 61.8 °F 29.81 in WNW 2.4 mph 4.0 mph 67 % 0.00 in
13:36 73.5 °F 61.9 °F 29.81 in NNE 0.8 mph 3.5 mph 67 % 0.00 in
13:41 73.6 °F 61.5 °F 29.81 in WNW 1.1 mph 4.6 mph 66 % 0.00 in
13:46 73.8 °F 61.7 °F 29.81 in North 2.8 mph 5.8 mph 66 % 0.00 in
13:52 74.0 °F 61.9 °F 29.80 in North 0.5 mph 3.5 mph 66 % 0.00 in
13:57 74.3 °F 61.8 °F 29.80 in NNE 1.4 mph 3.5 mph 65 % 0.00 in
14:07 74.7 °F 61.7 °F 29.79 in NNW 1.2 mph 3.5 mph 64 % 0.00 in
14:12 74.9 °F 62.8 °F 29.79 in NNW 1.3 mph 2.3 mph 66 % 0.00 in
14:17 75.0 °F 61.5 °F 29.79 in NNW 2.1 mph 4.0 mph 63 % 0.00 in
14:22 75.0 °F 62.0 °F 29.79 in North 0.2 mph 2.3 mph 64 % 0.00 in
14:27 74.9 °F 62.3 °F 29.79 in North 0.1 mph 1.2 mph 65 % 0.00 in
14:32 74.9 °F 61.5 °F 29.78 in Calm   1.2 mph 63 % 0.00 in
14:37 74.8 °F 62.2 °F 29.77 in North 0.2 mph 1.2 mph 65 % 0.00 in
14:43 74.7 °F 61.7 °F 29.76 in Calm     64 % 0.00 in
14:53 74.7 °F 61.3 °F 29.75 in ESE 0.1 mph 1.2 mph 63 % 0.00 in
14:58 74.9 °F 61.5 °F 29.75 in ESE 1.4 mph 2.3 mph 63 % 0.00 in
15:03 75.0 °F 62.0 °F 29.74 in ESE 0.3 mph 3.5 mph 64 % 0.00 in
15:08 75.0 °F 62.0 °F 29.74 in SSE 2.3 mph 5.8 mph 64 % 0.00 in
15:13 74.9 °F 61.5 °F 29.74 in SE 4.9 mph 6.9 mph 63 % 0.00 in
15:23 74.8 °F 61.8 °F 29.73 in SSW 1.4 mph 5.8 mph 64 % 0.00 in
15:28 74.7 °F 61.7 °F 29.73 in SSE 9.4 mph 13.8 mph 64 % 0.00 in
15:34 74.3 °F 61.8 °F 29.73 in SSE 1.9 mph 9.2 mph 65 % 0.00 in
15:39 74.0 °F 61.5 °F 29.74 in SSE 6.1 mph 11.5 mph 65 % 0.00 in
15:44 73.7 °F 61.6 °F 29.74 in SE 1.5 mph 4.6 mph 66 % 0.00 in
15:49 73.5 °F 61.4 °F 29.75 in SE 2.8 mph 5.8 mph 66 % 0.00 in
15:54 73.3 °F 61.7 °F 29.75 in SSE 0.1 mph 2.3 mph 67 % 0.00 in
16:04 72.9 °F 61.3 °F 29.75 in South 1.4 mph 3.5 mph 67 % 0.00 in
16:09 72.8 °F 61.6 °F 29.75 in SW 0.7 mph 3.5 mph 68 % 0.00 in
16:14 72.6 °F 61.4 °F 29.77 in NNW 2.5 mph 3.5 mph 68 % 0.00 in
16:19 72.0 °F 61.3 °F 29.77 in NW 1.8 mph 6.9 mph 69 % 0.00 in
16:24 71.1 °F 60.8 °F 29.77 in NW 3.2 mph 5.8 mph 70 % 0.00 in
16:29 70.6 °F 61.1 °F 29.77 in NE 6.7 mph 10.4 mph 72 % 0.00 in
16:35 68.9 °F 60.6 °F 29.77 in NE 4.3 mph 10.4 mph 75 % 0.00 in
16:40 67.6 °F 60.1 °F 29.77 in North 6.4 mph 9.2 mph 77 % 0.00 in
16:45 66.6 °F 59.5 °F 29.77 in NNE 5.4 mph 8.0 mph 78 % 0.00 in
16:50 65.8 °F 59.1 °F 29.76 in NNE 5.3 mph 11.5 mph 79 % 0.00 in
16:55 65.0 °F 59.0 °F 29.77 in NNE 9.5 mph 13.8 mph 81 % 0.00 in
17:00 64.4 °F 59.5 °F 29.81 in ENE 4.7 mph 6.9 mph 84 % 0.00 in
17:05 63.7 °F 59.4 °F 29.81 in NE 7.6 mph 15.0 mph 86 % 0.08 in
17:10 63.0 °F 59.1 °F 29.79 in NE 3.5 mph 5.8 mph 87 % 0.20 in
17:15 62.6 °F 59.0 °F 29.76 in NE 2.0 mph 6.0 mph 88 % 0.00 in
17:20 62.3 °F 59.0 °F 29.76 in ESE 0.2 mph   89 % 0.23 in
17:25 62.2 °F 58.9 °F 29.76 in Calm     89 % 0.00 in
17:30 62.0 °F 59.0 °F 29.76 in East 2.0 mph 3.0 mph 90 % 0.00 in
17:35 61.8 °F 58.8 °F 29.76 in ENE 1.7 mph 3.0 mph 90 % 0.24 in
17:40 61.7 °F 59.0 °F 29.78 in ENE 0.5 mph 1.2 mph 91 % 0.24 in
17:45 61.6 °F 58.9 °F 29.78 in ENE 1.0 mph 2.0 mph 91 % 0.00 in
17:50 61.5 °F 58.8 °F 29.78 in Calm   2.0 mph 91 % 0.00 in
17:55 61.4 °F 59.1 °F 29.78 in NNW 0.8 mph 2.0 mph 92 % 0.24 in
18:00 61.3 °F 59.0 °F 29.79 in NNW 0.2 mph 1.2 mph 92 % 0.24 in
18:05 61.2 °F 58.9 °F 29.80 in NNW 0.1 mph   92 % 0.16 in
18:11 61.2 °F 58.9 °F 29.79 in NNW 0.1 mph 1.2 mph 92 % 0.04 in
18:16 61.1 °F 58.8 °F 29.80 in NNW 0.1 mph   92 % 0.04 in
18:21 61.2 °F 59.2 °F 29.80 in Calm     93 % 0.04 in
18:26 61.1 °F 59.1 °F 29.79 in NNW 0.2 mph 1.2 mph 93 % 0.04 in
18:31 61.1 °F 59.1 °F 29.79 in NNW 1.6 mph 3.5 mph 93 % 0.04 in
18:36 61.1 °F 59.1 °F 29.80 in North 0.7 mph 3.5 mph 93 % 0.06 in
18:41 61.1 °F 59.1 °F 29.81 in NNW 0.1 mph 1.2 mph 93 % 0.06 in
18:46 61.0 °F 59.3 °F 29.83 in West 2.8 mph 5.8 mph 94 % 0.06 in
18:51 60.9 °F 59.2 °F 29.80 in North 6.1 mph 11.5 mph 94 % 0.07 in
18:56 60.7 °F 59.0 °F 29.81 in North 0.1 mph 1.2 mph 94 % 0.09 in
19:02 60.7 °F 59.0 °F 29.80 in NNE 3.0 mph 3.5 mph 94 % 0.10 in
19:07 60.5 °F 58.8 °F 29.80 in Calm   3.5 mph 94 % 0.10 in
19:12 60.4 °F 58.7 °F 29.81 in NNE 2.3 mph 3.5 mph 94 % 0.09 in
19:17 60.4 °F 58.7 °F 29.82 in NNE 1.7 mph 6.0 mph 94 % 0.08 in
19:22 60.3 °F 58.6 °F 29.82 in NNE 1.0 mph 2.3 mph 94 % 0.07 in
19:27 60.2 °F 58.5 °F 29.83 in NW 2.3 mph 3.5 mph 94 % 0.07 in
19:32 60.2 °F 58.8 °F 29.82 in North 4.1 mph 8.0 mph 95 % 0.05 in
19:37 60.0 °F 58.3 °F 29.82 in NNE 1.2 mph 4.6 mph 94 % 0.04 in
19:42 59.9 °F 58.5 °F 29.81 in NNE 4.0 mph 5.8 mph 95 % 0.04 in
19:48 59.8 °F 58.4 °F 29.81 in NNE 3.3 mph 6.9 mph 95 % 0.05 in
19:53 59.8 °F 58.4 °F 29.81 in North 2.3 mph 8.1 mph 95 % 0.03 in
19:58 59.7 °F 58.3 °F 29.82 in NNE 2.3 mph 4.6 mph 95 % 0.03 in
20:03 59.7 °F 58.3 °F 29.83 in NNW 2.3 mph 4.0 mph 95 % 0.03 in
20:08 59.6 °F 58.2 °F 29.83 in NNE 2.2 mph 4.6 mph 95 % 0.03 in
20:13 59.6 °F 58.2 °F 29.83 in NNE 4.2 mph 6.9 mph 95 % 0.03 in
20:18 59.4 °F 58.0 °F 29.84 in NNE 1.8 mph 3.5 mph 95 % 0.03 in
20:23 59.2 °F 57.8 °F 29.84 in NE 2.2 mph 4.6 mph 95 % 0.03 in
20:28 59.1 °F 57.7 °F 29.84 in NE 1.3 mph 5.8 mph 95 % 0.03 in
20:33 58.9 °F 57.5 °F 29.84 in ENE 2.9 mph 9.2 mph 95 % 0.03 in
20:39 58.7 °F 57.0 °F 29.84 in NNE 2.9 mph 6.9 mph 94 % 0.03 in
20:44 58.5 °F 56.8 °F 29.84 in ENE 3.1 mph 4.6 mph 94 % 0.03 in
20:49 58.4 °F 56.7 °F 29.84 in NE 2.9 mph 3.5 mph 94 % 0.02 in
20:54 58.3 °F 56.6 °F 29.85 in NNE 1.4 mph 3.5 mph 94 % 0.01 in
20:59 58.2 °F 56.8 °F 29.86 in NNE 4.4 mph 5.8 mph 95 % 0.01 in
21:04 58.1 °F 56.7 °F 29.86 in NNE 1.5 mph 3.0 mph 95 % 0.00 in
21:09 58.1 °F 56.7 °F 29.86 in North 1.2 mph 2.0 mph 95 % 0.00 in
21:14 58.1 °F 56.7 °F 29.87 in North 3.6 mph 9.2 mph 95 % 0.00 in
21:19 58.1 °F 56.7 °F 29.87 in North 5.1 mph 9.2 mph 95 % 0.00 in
21:24 58.0 °F 56.6 °F 29.87 in NE 6.4 mph 9.2 mph 95 % 0.00 in
21:30 57.8 °F 56.4 °F 29.87 in NNE 6.9 mph 10.4 mph 95 % 0.00 in
21:35 57.8 °F 56.4 °F 29.86 in North 5.8 mph 9.2 mph 95 % 0.00 in
21:40 57.6 °F 56.2 °F 29.86 in NNE 4.5 mph 8.1 mph 95 % 0.00 in
21:45 57.6 °F 56.2 °F 29.87 in NNE 4.8 mph 10.4 mph 95 % 0.00 in
21:50 57.5 °F 56.1 °F 29.87 in NNW 5.0 mph 9.0 mph 95 % 0.00 in
21:55 57.2 °F 55.5 °F 29.88 in NNW 6.2 mph 9.2 mph 94 % 0.00 in
22:00 56.9 °F 55.2 °F 29.88 in NNE 2.5 mph 8.1 mph 94 % 0.00 in
22:05 56.7 °F 54.7 °F 29.88 in North 5.5 mph 8.1 mph 93 % 0.00 in
22:10 56.5 °F 54.5 °F 29.88 in NW 6.1 mph 6.1 mph 93 % 0.00 in
22:15 56.3 °F 54.3 °F 29.88 in NNE 8.0 mph 12.0 mph 93 % 0.00 in
22:20 56.1 °F 53.8 °F 29.88 in North 6.0 mph 12.0 mph 92 % 0.00 in
22:25 55.8 °F 53.2 °F 29.89 in North 6.0 mph 13.0 mph 91 % 0.00 in
22:30 55.6 °F 53.3 °F 29.89 in NNE 3.0 mph 12.0 mph 92 % 0.00 in
22:35 55.5 °F 53.2 °F 29.89 in North 3.0 mph 9.0 mph 92 % 0.00 in
22:40 55.4 °F 53.1 °F 29.89 in North 4.6 mph 9.0 mph 92 % 0.00 in
22:45 55.4 °F 53.1 °F 29.89 in North 6.0 mph 9.0 mph 92 % 0.00 in
22:50 55.3 °F 53.0 °F 29.89 in North 3.0 mph 12.0 mph 92 % 0.00 in
22:55 55.2 °F 52.9 °F 29.89 in North 6.6 mph 6.9 mph 92 % 0.00 in
23:00 55.1 °F 52.8 °F 29.89 in NNE 7.4 mph 13.0 mph 92 % 0.00 in
23:06 55.0 °F 52.4 °F 29.89 in NNW 6.2 mph 11.5 mph 91 % 0.00 in
23:11 54.9 °F 52.3 °F 29.89 in NNE 5.2 mph 13.8 mph 91 % 0.00 in
23:16 54.9 °F 52.3 °F 29.89 in North 6.8 mph 11.5 mph 91 % 0.00 in
23:21 54.9 °F 52.3 °F 29.89 in NNE 5.8 mph 10.4 mph 91 % 0.00 in
23:26 54.8 °F 52.2 °F 29.89 in NNE 9.5 mph 17.3 mph 91 % 0.00 in
23:31 54.8 °F 51.9 °F 29.89 in North 5.5 mph 9.2 mph 90 % 0.00 in
23:36 54.7 °F 51.8 °F 29.89 in ENE 7.0 mph 9.0 mph 90 % 0.00 in
23:41 54.7 °F 51.8 °F 29.90 in NNE 6.3 mph 15.0 mph 90 % 0.00 in
23:46 54.7 °F 51.8 °F 29.90 in NNE 2.2 mph 10.4 mph 90 % 0.00 in
23:51 54.7 °F 51.8 °F 29.90 in NNE 5.3 mph 9.2 mph 90 % 0.00 in
23:57 54.7 °F 51.8 °F 29.90 in NNE 7.1 mph 14.0 mph 90 % 0.00 in
Crab Meadow Weather
Compliments of Weather Underground - 2.75 mb

Script developed by  Jim McMurry - jmcmurry@mwt.net Adapted for the template by  Wim van der Kuil - Leuven-Template.eu

Recycling: We use over 80,000,000,000 aluminum soda cans every year.